Varmdo — SMXZ — position and weather

sailwx.info

Track history (hours):
 
Tides and Currents Weather Stations Pressure Air Temp Water Temp Dewpoint Dewpoint Depression Visibility Wind Speed Wind Dir Waves Ship Positions

Varmdo

Last reported at 2015-Aug-03 15:10 UTC. Time now 2015-Aug-03 17:08 UTC.
Position N 59°23' E 018°18'.

Length 38 m; draft 2.5 m.

Type: Passenger vessel. MMSI: 265520390.

Date/timePositionNaut miles runAvg speedWind from/ knotsBaromVisibWave heightAir tempDewpointWater temp
2015-Aug-03 15:10N 59°23' E 018°18'812.0
2015-Aug-03 14:33N 59°20' E 018°05'3 0.4
2015-Aug-03 06:33N 59°20' E 018°11'3 3.2
2015-Aug-03 05:32N 59°20' E 018°04'0 0.0
2015-Aug-03 04:32N 59°20' E 018°04'0 0.0
2015-Aug-03 03:32N 59°20' E 018°04'0 0.0
2015-Aug-03 02:32N 59°20' E 018°04'0 0.0
2015-Aug-03 01:32N 59°20' E 018°04'0 0.0
2015-Aug-03 00:32N 59°20' E 018°04'0 0.0
2015-Aug-02 23:28N 59°20' E 018°04'0 0.0
2015-Aug-02 22:31N 59°20' E 018°04'0 0.0
2015-Aug-02 21:31N 59°20' E 018°04'0 0.0
2015-Aug-02 20:31N 59°20' E 018°04'0 0.0
2015-Aug-02 19:31N 59°20' E 018°04'0 0.0
2015-Aug-02 18:31N 59°20' E 018°04'3 0.5
2015-Aug-02 13:33N 59°19' E 018°09'1 1.1
2015-Aug-02 12:33N 59°19' E 018°07'1 0.2
2015-Aug-02 06:33N 59°19' E 018°05'0 0.4
2015-Aug-02 05:31N 59°20' E 018°04'0 0.0
2015-Aug-02 04:31N 59°20' E 018°04'0 0.0
2015-Aug-02 03:31N 59°20' E 018°04'0 0.0
2015-Aug-02 02:31N 59°20' E 018°04'0 0.0
2015-Aug-02 01:31N 59°20' E 018°04'0 0.0
2015-Aug-02 00:31N 59°20' E 018°04'0 0.0
2015-Aug-01 23:28N 59°20' E 018°04'0 0.0
2015-Aug-01 22:31N 59°20' E 018°04'0 0.0
2015-Aug-01 21:31N 59°20' E 018°04'0 0.0
2015-Aug-01 20:31N 59°20' E 018°04'0 0.0
2015-Aug-01 19:31N 59°20' E 018°04'0 0.0
2015-Aug-01 18:31N 59°20' E 018°04'0 0.0
2015-Aug-01 17:28N 59°20' E 018°04'0 0.0
2015-Aug-01 16:31N 59°20' E 018°04'0 0.0
2015-Aug-01 15:31N 59°20' E 018°04'0 0.0
2015-Aug-01 14:28N 59°20' E 018°04'0 0.0
2015-Aug-01 13:25N 59°20' E 018°04'7 6.7
2015-Aug-01 12:20N 59°23' E 018°17'1 0.1
2015-Aug-01 07:17N 59°23' E 018°19'810.9
2015-Aug-01 06:34N 59°20' E 018°05'0 0.1
2015-Aug-01 05:31N 59°20' E 018°05'0 0.0
2015-Aug-01 04:31N 59°20' E 018°05'0 0.0
2015-Aug-01 03:31N 59°20' E 018°05'0 0.0
2015-Aug-01 02:31N 59°20' E 018°05'0 0.0
2015-Aug-01 01:31N 59°20' E 018°05'0 0.0
2015-Aug-01 00:31N 59°20' E 018°05'0 0.0
2015-Jul-31 23:31N 59°20' E 018°05'0 0.0
2015-Jul-31 22:31N 59°20' E 018°05'0 0.0
2015-Jul-31 21:31N 59°20' E 018°05'0 0.0
2015-Jul-31 20:31N 59°20' E 018°05'0 0.0
2015-Jul-31 19:31N 59°20' E 018°05'0 0.0
2015-Jul-31 18:28N 59°20' E 018°05'0 0.0
2015-Jul-31 17:31N 59°20' E 018°05'7 6.9
2015-Jul-31 16:27N 59°23' E 018°18'7 1.1
2015-Jul-31 09:33N 59°20' E 018°05'0 0.2
2015-Jul-31 08:32N 59°20' E 018°05'3 0.2
2015-Jul-30 15:27N 59°20' E 018°11'3 3.8
2015-Jul-30 14:33N 59°20' E 018°05'7 5.7
2015-Jul-30 13:16N 59°23' E 018°18'1 0.2
2015-Jul-30 07:18N 59°22' E 018°20'811.4
2015-Jul-30 06:33N 59°19' E 018°05'0 0.3
2015-Jul-30 05:32N 59°20' E 018°05'0 0.0
2015-Jul-30 04:32N 59°20' E 018°05'0 0.0
2015-Jul-30 03:32N 59°20' E 018°05'0 0.0
2015-Jul-30 02:32N 59°20' E 018°05'0 0.0
2015-Jul-30 01:32N 59°20' E 018°05'0 0.0
2015-Jul-30 00:32N 59°20' E 018°05'0 0.0
2015-Jul-29 23:32N 59°20' E 018°05'0 0.0
2015-Jul-29 22:32N 59°20' E 018°05'0 0.0
2015-Jul-29 21:32N 59°20' E 018°05'0 0.0
2015-Jul-29 20:32N 59°20' E 018°05'0 0.0
2015-Jul-29 14:33N 59°19' E 018°05'0 0.0
2015-Jul-29 08:31N 59°20' E 018°04'0 0.0
2015-Jul-28 13:33N 59°20' E 018°05'3 3.1
2015-Jul-28 12:33N 59°20' E 018°11'0 0.1
2015-Jul-28 08:10N 59°20' E 018°11'3 5.0
2015-Jul-28 07:29N 59°20' E 018°05'0 0.0
2015-Jul-28 06:32N 59°20' E 018°05'3 2.5
2015-Jul-28 05:31N 59°19' E 018°09'1 0.0
2015-Jul-27 14:22N 59°19' E 018°10'3 3.3
2015-Jul-27 13:29N 59°19' E 018°05'4 0.5
2015-Jul-27 06:22N 59°20' E 018°12'4 4.4
2015-Jul-27 05:33N 59°20' E 018°04'0 0.0
2015-Jul-27 04:33N 59°20' E 018°04'0 0.0
2015-Jul-27 03:33N 59°20' E 018°04'0 0.0
2015-Jul-27 02:33N 59°20' E 018°04'0 0.0
2015-Jul-27 01:33N 59°20' E 018°04'0 0.0
2015-Jul-27 00:33N 59°20' E 018°04'0 0.0
2015-Jul-26 23:33N 59°20' E 018°04'0 0.0
2015-Jul-26 22:30N 59°20' E 018°04'0 0.0
2015-Jul-26 21:30N 59°20' E 018°04'0 0.0
2015-Jul-26 20:30N 59°20' E 018°04'0 0.0
2015-Jul-26 19:30N 59°20' E 018°04'0 0.0
2015-Jul-26 18:30N 59°20' E 018°04'3 0.6
2015-Jul-26 13:33N 59°19' E 018°10'5 4.1
2015-Jul-26 12:17N 59°23' E 018°17'7 1.3
2015-Jul-26 06:33N 59°20' E 018°05'0 0.2
2015-Jul-26 05:33N 59°20' E 018°04'0 0.0
2015-Jul-26 04:33N 59°20' E 018°04'0 0.0
2015-Jul-26 03:33N 59°20' E 018°04'0 0.0
2015-Jul-26 02:33N 59°20' E 018°04'0 0.0
2015-Jul-26 01:33N 59°20' E 018°04'0 0.0
2015-Jul-26 00:33N 59°20' E 018°04'0 0.0
2015-Jul-25 23:33N 59°20' E 018°04'0 0.0
2015-Jul-25 22:33N 59°20' E 018°04'0 0.0
2015-Jul-25 21:33N 59°20' E 018°04'0 0.0
2015-Jul-25 20:33N 59°20' E 018°04'0 0.0
2015-Jul-25 19:33N 59°20' E 018°04'0 0.0
2015-Jul-25 18:33N 59°20' E 018°04'0 0.0
2015-Jul-25 17:33N 59°20' E 018°04'0 0.0
2015-Jul-25 16:33N 59°20' E 018°04'0 0.0
2015-Jul-25 15:33N 59°20' E 018°04'0 0.0
2015-Jul-25 14:33N 59°20' E 018°04'0 0.0
2015-Jul-25 13:33N 59°20' E 018°04'6 5.6
2015-Jul-25 12:31N 59°22' E 018°15'3 0.5
2015-Jul-25 07:18N 59°23' E 018°20'911.5
2015-Jul-25 06:33N 59°20' E 018°05'0 0.2
2015-Jul-25 05:32N 59°20' E 018°05'0 0.0
2015-Jul-25 04:32N 59°20' E 018°05'0 0.0
2015-Jul-25 03:32N 59°20' E 018°05'0 0.0
2015-Jul-25 02:32N 59°20' E 018°05'0 0.0
2015-Jul-25 01:32N 59°20' E 018°05'0 0.0
2015-Jul-25 00:32N 59°20' E 018°05'0 0.0
2015-Jul-24 23:32N 59°20' E 018°05'0 0.0
2015-Jul-24 22:32N 59°20' E 018°05'0 0.0
2015-Jul-24 21:29N 59°20' E 018°05'0 0.0
2015-Jul-24 20:32N 59°20' E 018°05'0 0.0
2015-Jul-24 19:29N 59°20' E 018°05'0 0.0
2015-Jul-24 18:29N 59°20' E 018°05'0 0.4
2015-Jul-24 17:32N 59°19' E 018°05'  
Track history (hours):
 
Tides and Currents Weather Stations Pressure Air Temp Water Temp Dewpoint Dewpoint Depression Visibility Wind Speed Wind Dir Waves Ship Positions

Varmdo

Last reported at 2015-Aug-03 15:10 UTC. Time now 2015-Aug-03 17:08 UTC.
Position N 59°23' E 018°18'.

Length 38 m; draft 2.5 m.

Type: Passenger vessel. MMSI: 265520390.

Date/timePositionNaut miles runAvg speedWind from/ knotsBaromVisibWave heightAir tempDewpointWater temp
2015-Aug-03 15:10N 59°23' E 018°18'812.0
2015-Aug-03 14:33N 59°20' E 018°05'3 0.4
2015-Aug-03 06:33N 59°20' E 018°11'3 3.2
2015-Aug-03 05:32N 59°20' E 018°04'0 0.0
2015-Aug-03 04:32N 59°20' E 018°04'0 0.0
2015-Aug-03 03:32N 59°20' E 018°04'0 0.0
2015-Aug-03 02:32N 59°20' E 018°04'0 0.0
2015-Aug-03 01:32N 59°20' E 018°04'0 0.0
2015-Aug-03 00:32N 59°20' E 018°04'0 0.0
2015-Aug-02 23:28N 59°20' E 018°04'0 0.0
2015-Aug-02 22:31N 59°20' E 018°04'0 0.0
2015-Aug-02 21:31N 59°20' E 018°04'0 0.0
2015-Aug-02 20:31N 59°20' E 018°04'0 0.0
2015-Aug-02 19:31N 59°20' E 018°04'0 0.0
2015-Aug-02 18:31N 59°20' E 018°04'3 0.5
2015-Aug-02 13:33N 59°19' E 018°09'1 1.1
2015-Aug-02 12:33N 59°19' E 018°07'1 0.2
2015-Aug-02 06:33N 59°19' E 018°05'0 0.4
2015-Aug-02 05:31N 59°20' E 018°04'0 0.0
2015-Aug-02 04:31N 59°20' E 018°04'0 0.0
2015-Aug-02 03:31N 59°20' E 018°04'0 0.0
2015-Aug-02 02:31N 59°20' E 018°04'0 0.0
2015-Aug-02 01:31N 59°20' E 018°04'0 0.0
2015-Aug-02 00:31N 59°20' E 018°04'0 0.0
2015-Aug-01 23:28N 59°20' E 018°04'0 0.0
2015-Aug-01 22:31N 59°20' E 018°04'0 0.0
2015-Aug-01 21:31N 59°20' E 018°04'0 0.0
2015-Aug-01 20:31N 59°20' E 018°04'0 0.0
2015-Aug-01 19:31N 59°20' E 018°04'0 0.0
2015-Aug-01 18:31N 59°20' E 018°04'0 0.0
2015-Aug-01 17:28N 59°20' E 018°04'0 0.0
2015-Aug-01 16:31N 59°20' E 018°04'0 0.0
2015-Aug-01 15:31N 59°20' E 018°04'0 0.0
2015-Aug-01 14:28N 59°20' E 018°04'0 0.0
2015-Aug-01 13:25N 59°20' E 018°04'7 6.7
2015-Aug-01 12:20N 59°23' E 018°17'1 0.1
2015-Aug-01 07:17N 59°23' E 018°19'810.9
2015-Aug-01 06:34N 59°20' E 018°05'0 0.1
2015-Aug-01 05:31N 59°20' E 018°05'0 0.0
2015-Aug-01 04:31N 59°20' E 018°05'0 0.0
2015-Aug-01 03:31N 59°20' E 018°05'0 0.0
2015-Aug-01 02:31N 59°20' E 018°05'0 0.0
2015-Aug-01 01:31N 59°20' E 018°05'0 0.0
2015-Aug-01 00:31N 59°20' E 018°05'0 0.0
2015-Jul-31 23:31N 59°20' E 018°05'0 0.0
2015-Jul-31 22:31N 59°20' E 018°05'0 0.0
2015-Jul-31 21:31N 59°20' E 018°05'0 0.0
2015-Jul-31 20:31N 59°20' E 018°05'0 0.0
2015-Jul-31 19:31N 59°20' E 018°05'0 0.0
2015-Jul-31 18:28N 59°20' E 018°05'0 0.0
2015-Jul-31 17:31N 59°20' E 018°05'7 6.9
2015-Jul-31 16:27N 59°23' E 018°18'7 1.1
2015-Jul-31 09:33N 59°20' E 018°05'0 0.2
2015-Jul-31 08:32N 59°20' E 018°05'3 0.2
2015-Jul-30 15:27N 59°20' E 018°11'3 3.8
2015-Jul-30 14:33N 59°20' E 018°05'7 5.7
2015-Jul-30 13:16N 59°23' E 018°18'1 0.2
2015-Jul-30 07:18N 59°22' E 018°20'811.4
2015-Jul-30 06:33N 59°19' E 018°05'0 0.3
2015-Jul-30 05:32N 59°20' E 018°05'0 0.0
2015-Jul-30 04:32N 59°20' E 018°05'0 0.0
2015-Jul-30 03:32N 59°20' E 018°05'0 0.0
2015-Jul-30 02:32N 59°20' E 018°05'0 0.0
2015-Jul-30 01:32N 59°20' E 018°05'0 0.0
2015-Jul-30 00:32N 59°20' E 018°05'0 0.0
2015-Jul-29 23:32N 59°20' E 018°05'0 0.0
2015-Jul-29 22:32N 59°20' E 018°05'0 0.0
2015-Jul-29 21:32N 59°20' E 018°05'0 0.0
2015-Jul-29 20:32N 59°20' E 018°05'0 0.0
2015-Jul-29 14:33N 59°19' E 018°05'0 0.0
2015-Jul-29 08:31N 59°20' E 018°04'0 0.0
2015-Jul-28 13:33N 59°20' E 018°05'3 3.1
2015-Jul-28 12:33N 59°20' E 018°11'0 0.1
2015-Jul-28 08:10N 59°20' E 018°11'3 5.0
2015-Jul-28 07:29N 59°20' E 018°05'0 0.0
2015-Jul-28 06:32N 59°20' E 018°05'3 2.5
2015-Jul-28 05:31N 59°19' E 018°09'1 0.0
2015-Jul-27 14:22N 59°19' E 018°10'3 3.3
2015-Jul-27 13:29N 59°19' E 018°05'4 0.5
2015-Jul-27 06:22N 59°20' E 018°12'4 4.4
2015-Jul-27 05:33N 59°20' E 018°04'0 0.0
2015-Jul-27 04:33N 59°20' E 018°04'0 0.0
2015-Jul-27 03:33N 59°20' E 018°04'0 0.0
2015-Jul-27 02:33N 59°20' E 018°04'0 0.0
2015-Jul-27 01:33N 59°20' E 018°04'0 0.0
2015-Jul-27 00:33N 59°20' E 018°04'0 0.0
2015-Jul-26 23:33N 59°20' E 018°04'0 0.0
2015-Jul-26 22:30N 59°20' E 018°04'0 0.0
2015-Jul-26 21:30N 59°20' E 018°04'0 0.0
2015-Jul-26 20:30N 59°20' E 018°04'0 0.0
2015-Jul-26 19:30N 59°20' E 018°04'0 0.0
2015-Jul-26 18:30N 59°20' E 018°04'3 0.6
2015-Jul-26 13:33N 59°19' E 018°10'5 4.1
2015-Jul-26 12:17N 59°23' E 018°17'7 1.3
2015-Jul-26 06:33N 59°20' E 018°05'0 0.2
2015-Jul-26 05:33N 59°20' E 018°04'0 0.0
2015-Jul-26 04:33N 59°20' E 018°04'0 0.0
2015-Jul-26 03:33N 59°20' E 018°04'0 0.0
2015-Jul-26 02:33N 59°20' E 018°04'0 0.0
2015-Jul-26 01:33N 59°20' E 018°04'0 0.0
2015-Jul-26 00:33N 59°20' E 018°04'0 0.0
2015-Jul-25 23:33N 59°20' E 018°04'0 0.0
2015-Jul-25 22:33N 59°20' E 018°04'0 0.0
2015-Jul-25 21:33N 59°20' E 018°04'0 0.0
2015-Jul-25 20:33N 59°20' E 018°04'0 0.0
2015-Jul-25 19:33N 59°20' E 018°04'0 0.0
2015-Jul-25 18:33N 59°20' E 018°04'0 0.0
2015-Jul-25 17:33N 59°20' E 018°04'0 0.0
2015-Jul-25 16:33N 59°20' E 018°04'0 0.0
2015-Jul-25 15:33N 59°20' E 018°04'0 0.0
2015-Jul-25 14:33N 59°20' E 018°04'0 0.0
2015-Jul-25 13:33N 59°20' E 018°04'6 5.6
2015-Jul-25 12:31N 59°22' E 018°15'3 0.5
2015-Jul-25 07:18N 59°23' E 018°20'911.5
2015-Jul-25 06:33N 59°20' E 018°05'0 0.2
2015-Jul-25 05:32N 59°20' E 018°05'0 0.0
2015-Jul-25 04:32N 59°20' E 018°05'0 0.0
2015-Jul-25 03:32N 59°20' E 018°05'0 0.0
2015-Jul-25 02:32N 59°20' E 018°05'0 0.0
2015-Jul-25 01:32N 59°20' E 018°05'0 0.0
2015-Jul-25 00:32N 59°20' E 018°05'0 0.0
2015-Jul-24 23:32N 59°20' E 018°05'0 0.0
2015-Jul-24 22:32N 59°20' E 018°05'0 0.0
2015-Jul-24 21:29N 59°20' E 018°05'0 0.0
2015-Jul-24 20:32N 59°20' E 018°05'0 0.0
2015-Jul-24 19:29N 59°20' E 018°05'0 0.0
2015-Jul-24 18:29N 59°20' E 018°05'0 0.4
2015-Jul-24 17:32N 59°19' E 018°05'  

Dump ship's entire track history